sensor_id;sensor_type;location;lat;lon;timestamp;pressure;altitude;pressure_sealevel;temperature;humidity
32237;BME280;18726;44.732;10.550;2023-07-31T00:02:59;100661.00;;;28.36;100.00
32237;BME280;18726;44.732;10.550;2023-07-31T00:06:03;100662.69;;;28.43;100.00
32237;BME280;18726;44.732;10.550;2023-07-31T00:09:06;100650.59;;;28.37;100.00
32237;BME280;18726;44.732;10.550;2023-07-31T00:12:09;100645.34;;;28.11;100.00
32237;BME280;18726;44.732;10.550;2023-07-31T00:15:14;100626.63;;;27.84;100.00
32237;BME280;18726;44.732;10.550;2023-07-31T00:18:17;100635.75;;;27.76;100.00
32237;BME280;18726;44.732;10.550;2023-07-31T00:21:21;100644.75;;;27.89;100.00
32237;BME280;18726;44.732;10.550;2023-07-31T00:24:25;100655.91;;;28.07;100.00
32237;BME280;18726;44.732;10.550;2023-07-31T00:27:29;100650.00;;;28.14;100.00
32237;BME280;18726;44.732;10.550;2023-07-31T00:30:32;100656.38;;;28.15;100.00
32237;BME280;18726;44.732;10.550;2023-07-31T00:33:38;100651.59;;;27.97;100.00
32237;BME280;18726;44.732;10.550;2023-07-31T00:36:42;100655.31;;;27.85;100.00
32237;BME280;18726;44.732;10.550;2023-07-31T00:39:45;100657.66;;;27.68;100.00
32237;BME280;18726;44.732;10.550;2023-07-31T00:42:48;100663.06;;;27.90;100.00
32237;BME280;18726;44.732;10.550;2023-07-31T00:45:52;100676.69;;;28.06;100.00
32237;BME280;18726;44.732;10.550;2023-07-31T00:48:56;100674.38;;;28.23;100.00
32237;BME280;18726;44.732;10.550;2023-07-31T00:52:01;100671.25;;;28.30;100.00
32237;BME280;18726;44.732;10.550;2023-07-31T00:55:07;100679.63;;;28.39;100.00
32237;BME280;18726;44.732;10.550;2023-07-31T00:58:11;100686.28;;;28.42;100.00
32237;BME280;18726;44.732;10.550;2023-07-31T01:01:16;100693.75;;;28.45;100.00
32237;BME280;18726;44.732;10.550;2023-07-31T01:04:19;100694.34;;;28.49;100.00
32237;BME280;18726;44.732;10.550;2023-07-31T01:10:50;100706.16;;;28.44;100.00
32237;BME280;18726;44.732;10.550;2023-07-31T01:13:56;100703.34;;;28.53;100.00
32237;BME280;18726;44.732;10.550;2023-07-31T01:17:00;100700.88;;;28.46;100.00
32237;BME280;18726;44.732;10.550;2023-07-31T01:20:12;100704.63;;;28.34;100.00
32237;BME280;18726;44.732;10.550;2023-07-31T01:23:46;100700.00;;;28.21;100.00
32237;BME280;18726;44.732;10.550;2023-07-31T01:27:21;100694.69;;;28.14;100.00
32237;BME280;18726;44.732;10.550;2023-07-31T01:30:32;100694.38;;;28.12;100.00
32237;BME280;18726;44.732;10.550;2023-07-31T01:33:39;100701.84;;;28.15;100.00
32237;BME280;18726;44.732;10.550;2023-07-31T01:36:43;100695.47;;;28.15;100.00
32237;BME280;18726;44.732;10.550;2023-07-31T01:39:47;100703.38;;;28.16;100.00
32237;BME280;18726;44.732;10.550;2023-07-31T01:42:50;100709.91;;;28.13;99.32
32237;BME280;18726;44.732;10.550;2023-07-31T01:45:54;100700.75;;;28.04;100.00
32237;BME280;18726;44.732;10.550;2023-07-31T01:48:57;100690.66;;;27.79;100.00
32237;BME280;18726;44.732;10.550;2023-07-31T01:52:01;100693.41;;;27.51;100.00
32237;BME280;18726;44.732;10.550;2023-07-31T01:55:04;100679.34;;;27.64;100.00
32237;BME280;18726;44.732;10.550;2023-07-31T01:58:09;100686.59;;;27.52;100.00
32237;BME280;18726;44.732;10.550;2023-07-31T02:01:13;100680.41;;;27.57;100.00
32237;BME280;18726;44.732;10.550;2023-07-31T02:04:16;100674.94;;;27.36;100.00
32237;BME280;18726;44.732;10.550;2023-07-31T02:07:20;100680.00;;;27.19;100.00
32237;BME280;18726;44.732;10.550;2023-07-31T02:10:24;100674.13;;;27.17;100.00
32237;BME280;18726;44.732;10.550;2023-07-31T02:13:28;100680.34;;;27.30;100.00
32237;BME280;18726;44.732;10.550;2023-07-31T02:16:31;100681.00;;;27.43;100.00
32237;BME280;18726;44.732;10.550;2023-07-31T02:19:35;100688.13;;;27.44;100.00
32237;BME280;18726;44.732;10.550;2023-07-31T02:22:38;100692.63;;;27.51;100.00
32237;BME280;18726;44.732;10.550;2023-07-31T02:25:42;100683.56;;;27.19;100.00
32237;BME280;18726;44.732;10.550;2023-07-31T02:28:46;100684.50;;;26.85;100.00
32237;BME280;18726;44.732;10.550;2023-07-31T02:31:49;100685.00;;;26.84;100.00
32237;BME280;18726;44.732;10.550;2023-07-31T02:34:53;100687.41;;;27.04;98.92
32237;BME280;18726;44.732;10.550;2023-07-31T02:37:57;100687.75;;;27.15;100.00
32237;BME280;18726;44.732;10.550;2023-07-31T02:41:01;100673.81;;;27.24;98.98
32237;BME280;18726;44.732;10.550;2023-07-31T02:44:05;100678.97;;;27.35;98.67
32237;BME280;18726;44.732;10.550;2023-07-31T02:47:08;100685.28;;;27.17;95.28
32237;BME280;18726;44.732;10.550;2023-07-31T02:50:12;100681.44;;;26.92;99.14
32237;BME280;18726;44.732;10.550;2023-07-31T02:53:16;100681.06;;;27.03;99.45
32237;BME280;18726;44.732;10.550;2023-07-31T02:56:19;100680.91;;;27.07;100.00
32237;BME280;18726;44.732;10.550;2023-07-31T02:59:22;100687.13;;;27.20;95.67
32237;BME280;18726;44.732;10.550;2023-07-31T03:02:26;100689.66;;;27.27;91.94
32237;BME280;18726;44.732;10.550;2023-07-31T03:05:30;100689.97;;;27.29;94.27
32237;BME280;18726;44.732;10.550;2023-07-31T03:08:33;100693.06;;;27.31;94.07
32237;BME280;18726;44.732;10.550;2023-07-31T03:11:37;100694.00;;;27.28;94.07
32237;BME280;18726;44.732;10.550;2023-07-31T03:14:40;100706.09;;;27.34;90.94
32237;BME280;18726;44.732;10.550;2023-07-31T03:17:44;100697.41;;;27.32;93.89
32237;BME280;18726;44.732;10.550;2023-07-31T03:20:48;100699.25;;;27.26;92.52
32237;BME280;18726;44.732;10.550;2023-07-31T03:23:51;100705.09;;;27.10;89.25
32237;BME280;18726;44.732;10.550;2023-07-31T03:26:55;100701.16;;;26.67;93.15
32237;BME280;18726;44.732;10.550;2023-07-31T03:29:59;100701.63;;;26.66;94.72
32237;BME280;18726;44.732;10.550;2023-07-31T03:33:04;100702.03;;;26.55;98.77
32237;BME280;18726;44.732;10.550;2023-07-31T03:36:07;100705.75;;;26.61;99.21
32237;BME280;18726;44.732;10.550;2023-07-31T03:39:11;100709.78;;;26.60;97.89
32237;BME280;18726;44.732;10.550;2023-07-31T03:42:14;100710.25;;;26.58;96.16
32237;BME280;18726;44.732;10.550;2023-07-31T03:45:18;100714.34;;;26.45;94.67
32237;BME280;18726;44.732;10.550;2023-07-31T03:52:12;100707.63;;;26.33;100.00
32237;BME280;18726;44.732;10.550;2023-07-31T03:55:15;100714.78;;;26.21;96.72
32237;BME280;18726;44.732;10.550;2023-07-31T03:58:18;100704.03;;;26.11;97.43
32237;BME280;18726;44.732;10.550;2023-07-31T04:01:22;100697.94;;;26.03;98.38
32237;BME280;18726;44.732;10.550;2023-07-31T04:04:26;100713.69;;;26.19;100.00
32237;BME280;18726;44.732;10.550;2023-07-31T04:07:29;100716.56;;;26.50;98.51
32237;BME280;18726;44.732;10.550;2023-07-31T04:10:33;100715.88;;;26.68;94.21
32237;BME280;18726;44.732;10.550;2023-07-31T04:13:37;100714.09;;;26.52;95.18
32237;BME280;18726;44.732;10.550;2023-07-31T04:16:41;100707.81;;;26.39;94.90
32237;BME280;18726;44.732;10.550;2023-07-31T04:19:44;100709.16;;;26.56;98.82
32237;BME280;18726;44.732;10.550;2023-07-31T04:22:48;100719.22;;;26.84;97.26
32237;BME280;18726;44.732;10.550;2023-07-31T04:25:52;100721.84;;;27.10;92.91
32237;BME280;18726;44.732;10.550;2023-07-31T04:28:55;100714.75;;;27.27;91.15
32237;BME280;18726;44.732;10.550;2023-07-31T04:31:59;100713.22;;;27.35;89.27
32237;BME280;18726;44.732;10.550;2023-07-31T04:35:03;100724.56;;;27.41;87.73
32237;BME280;18726;44.732;10.550;2023-07-31T04:38:06;100721.31;;;27.51;87.34
32237;BME280;18726;44.732;10.550;2023-07-31T04:41:10;100718.22;;;27.49;86.06
32237;BME280;18726;44.732;10.550;2023-07-31T04:44:13;100726.91;;;27.51;89.29
32237;BME280;18726;44.732;10.550;2023-07-31T04:47:17;100720.41;;;27.54;87.02
32237;BME280;18726;44.732;10.550;2023-07-31T04:50:20;100722.53;;;27.32;89.08
32237;BME280;18726;44.732;10.550;2023-07-31T04:53:24;100725.03;;;27.39;86.70
32237;BME280;18726;44.732;10.550;2023-07-31T04:56:27;100737.28;;;27.51;85.71
32237;BME280;18726;44.732;10.550;2023-07-31T04:59:31;100734.41;;;27.82;87.85
32237;BME280;18726;44.732;10.550;2023-07-31T05:02:34;100736.91;;;28.53;80.50
32237;BME280;18726;44.732;10.550;2023-07-31T05:05:38;100733.13;;;29.49;76.84
32237;BME280;18726;44.732;10.550;2023-07-31T05:08:41;100734.94;;;30.39;73.35
32237;BME280;18726;44.732;10.550;2023-07-31T05:11:45;100740.66;;;30.88;70.70
32237;BME280;18726;44.732;10.550;2023-07-31T05:14:49;100750.31;;;32.33;65.95
32237;BME280;18726;44.732;10.550;2023-07-31T05:17:52;100757.13;;;33.52;62.43
32237;BME280;18726;44.732;10.550;2023-07-31T05:20:56;100757.78;;;34.66;59.27
32237;BME280;18726;44.732;10.550;2023-07-31T05:23:59;100766.16;;;35.78;55.83
32237;BME280;18726;44.732;10.550;2023-07-31T05:27:04;100761.47;;;36.68;52.33
32237;BME280;18726;44.732;10.550;2023-07-31T05:30:08;100756.06;;;37.30;49.84
32237;BME280;18726;44.732;10.550;2023-07-31T05:33:12;100761.78;;;37.92;47.58
32237;BME280;18726;44.732;10.550;2023-07-31T05:36:16;100765.25;;;37.61;46.58
32237;BME280;18726;44.732;10.550;2023-07-31T05:39:20;100756.44;;;36.91;47.71
32237;BME280;18726;44.732;10.550;2023-07-31T05:42:24;100760.72;;;35.74;50.99
32237;BME280;18726;44.732;10.550;2023-07-31T05:45:27;100764.09;;;36.66;50.65
32237;BME280;18726;44.732;10.550;2023-07-31T05:48:31;100754.72;;;35.14;54.27
32237;BME280;18726;44.732;10.550;2023-07-31T05:51:34;100753.66;;;34.73;59.10
32237;BME280;18726;44.732;10.550;2023-07-31T05:54:38;100751.63;;;34.68;59.98
32237;BME280;18726;44.732;10.550;2023-07-31T05:57:42;100757.50;;;34.31;62.69
32237;BME280;18726;44.732;10.550;2023-07-31T06:00:45;100770.66;;;34.90;60.83
32237;BME280;18726;44.732;10.550;2023-07-31T06:03:49;100765.97;;;35.42;60.43
32237;BME280;18726;44.732;10.550;2023-07-31T06:06:52;100775.81;;;35.94;57.30
32237;BME280;18726;44.732;10.550;2023-07-31T06:09:56;100779.19;;;36.39;57.89
32237;BME280;18726;44.732;10.550;2023-07-31T06:13:00;100782.56;;;37.57;53.84
32237;BME280;18726;44.732;10.550;2023-07-31T06:16:05;100787.34;;;36.89;55.58
32237;BME280;18726;44.732;10.550;2023-07-31T06:19:09;100786.94;;;37.34;56.33
32237;BME280;18726;44.732;10.550;2023-07-31T06:22:13;100797.28;;;39.06;51.16
32237;BME280;18726;44.732;10.550;2023-07-31T06:25:16;100798.63;;;40.99;46.25
32237;BME280;18726;44.732;10.550;2023-07-31T06:28:20;100798.03;;;41.01;46.31
32237;BME280;18726;44.732;10.550;2023-07-31T06:31:24;100793.97;;;40.89;45.99
32237;BME280;18726;44.732;10.550;2023-07-31T06:34:28;100796.44;;;41.13;46.07
32237;BME280;18726;44.732;10.550;2023-07-31T06:37:32;100799.63;;;41.59;45.48
32237;BME280;18726;44.732;10.550;2023-07-31T06:40:35;100791.41;;;41.55;45.94
32237;BME280;18726;44.732;10.550;2023-07-31T06:43:39;100800.75;;;41.27;44.75
32237;BME280;18726;44.732;10.550;2023-07-31T06:46:42;100788.53;;;40.77;45.63
32237;BME280;18726;44.732;10.550;2023-07-31T06:49:46;100801.75;;;41.66;45.36
32237;BME280;18726;44.732;10.550;2023-07-31T06:52:50;100800.78;;;42.43;43.05
32237;BME280;18726;44.732;10.550;2023-07-31T06:55:53;100797.09;;;39.43;48.49
32237;BME280;18726;44.732;10.550;2023-07-31T06:58:56;100789.06;;;36.98;57.34
32237;BME280;18726;44.732;10.550;2023-07-31T07:02:00;100791.13;;;36.20;61.69
32237;BME280;18726;44.732;10.550;2023-07-31T07:05:04;100787.63;;;36.03;62.88
32237;BME280;18726;44.732;10.550;2023-07-31T07:08:08;100793.41;;;35.59;66.15
32237;BME280;18726;44.732;10.550;2023-07-31T07:11:11;100789.56;;;36.19;61.88
32237;BME280;18726;44.732;10.550;2023-07-31T07:14:15;100798.13;;;36.55;61.29
32237;BME280;18726;44.732;10.550;2023-07-31T07:17:19;100789.41;;;36.89;61.68
32237;BME280;18726;44.732;10.550;2023-07-31T07:20:23;100799.28;;;37.61;59.61
32237;BME280;18726;44.732;10.550;2023-07-31T07:23:27;100795.94;;;35.68;63.55
32237;BME280;18726;44.732;10.550;2023-07-31T07:26:31;100794.69;;;35.63;63.42
32237;BME280;18726;44.732;10.550;2023-07-31T07:29:35;100802.97;;;35.22;65.10
32237;BME280;18726;44.732;10.550;2023-07-31T07:32:39;100813.75;;;35.35;66.39
32237;BME280;18726;44.732;10.550;2023-07-31T07:35:43;100813.25;;;35.03;65.07
32237;BME280;18726;44.732;10.550;2023-07-31T07:38:46;100808.34;;;35.42;63.53
32237;BME280;18726;44.732;10.550;2023-07-31T07:41:50;100807.09;;;36.12;62.81
32237;BME280;18726;44.732;10.550;2023-07-31T07:44:54;100801.38;;;35.54;63.72
32237;BME280;18726;44.732;10.550;2023-07-31T07:47:57;100807.31;;;33.91;67.85
32237;BME280;18726;44.732;10.550;2023-07-31T07:51:02;100798.41;;;33.55;70.92
32237;BME280;18726;44.732;10.550;2023-07-31T07:54:06;100806.56;;;33.53;69.83
32237;BME280;18726;44.732;10.550;2023-07-31T07:57:10;100797.81;;;33.88;69.20
32237;BME280;18726;44.732;10.550;2023-07-31T08:00:14;100805.72;;;34.33;68.90
32237;BME280;18726;44.732;10.550;2023-07-31T08:03:18;100798.63;;;35.15;64.80
32237;BME280;18726;44.732;10.550;2023-07-31T08:06:21;100793.75;;;34.88;64.86
32237;BME280;18726;44.732;10.550;2023-07-31T08:09:26;100792.94;;;34.76;64.89
32237;BME280;18726;44.732;10.550;2023-07-31T08:12:30;100789.34;;;33.40;69.70
32237;BME280;18726;44.732;10.550;2023-07-31T08:15:33;100790.22;;;32.89;70.90
32237;BME280;18726;44.732;10.550;2023-07-31T08:18:37;100785.91;;;34.21;68.58
32237;BME280;18726;44.732;10.550;2023-07-31T08:21:41;100786.22;;;34.35;65.17
32237;BME280;18726;44.732;10.550;2023-07-31T08:24:45;100788.09;;;35.05;62.12
32237;BME280;18726;44.732;10.550;2023-07-31T08:27:48;100799.13;;;34.80;63.22
32237;BME280;18726;44.732;10.550;2023-07-31T08:30:52;100806.75;;;34.52;64.68
32237;BME280;18726;44.732;10.550;2023-07-31T08:33:56;100789.31;;;33.77;66.76
32237;BME280;18726;44.732;10.550;2023-07-31T08:37:00;100788.81;;;34.66;65.22
32237;BME280;18726;44.732;10.550;2023-07-31T08:40:04;100782.41;;;34.54;63.54
32237;BME280;18726;44.732;10.550;2023-07-31T08:43:08;100785.53;;;34.79;61.61
32237;BME280;18726;44.732;10.550;2023-07-31T08:46:12;100785.50;;;35.35;61.43
32237;BME280;18726;44.732;10.550;2023-07-31T08:49:17;100779.19;;;35.86;59.16
32237;BME280;18726;44.732;10.550;2023-07-31T08:52:23;100784.75;;;35.29;60.56
32237;BME280;18726;44.732;10.550;2023-07-31T08:55:28;100780.03;;;35.59;59.16
32237;BME280;18726;44.732;10.550;2023-07-31T08:58:32;100773.34;;;34.22;63.92
32237;BME280;18726;44.732;10.550;2023-07-31T09:01:43;100781.00;;;34.16;65.27
32237;BME280;18726;44.732;10.550;2023-07-31T09:04:47;100779.47;;;33.19;67.87
32237;BME280;18726;44.732;10.550;2023-07-31T09:07:51;100774.34;;;33.23;67.09
32237;BME280;18726;44.732;10.550;2023-07-31T09:10:59;100769.31;;;32.44;68.95
32237;BME280;18726;44.732;10.550;2023-07-31T09:14:03;100767.94;;;32.34;71.30
32237;BME280;18726;44.732;10.550;2023-07-31T09:17:11;100781.75;;;32.83;72.65
32237;BME280;18726;44.732;10.550;2023-07-31T09:20:19;100769.78;;;32.94;71.91
32237;BME280;18726;44.732;10.550;2023-07-31T09:23:24;100774.75;;;33.90;67.81
32237;BME280;18726;44.732;10.550;2023-07-31T09:26:37;100773.31;;;34.06;66.98
32237;BME280;18726;44.732;10.550;2023-07-31T09:29:40;100764.03;;;33.46;67.71
32237;BME280;18726;44.732;10.550;2023-07-31T09:32:46;100758.69;;;33.48;68.70
32237;BME280;18726;44.732;10.550;2023-07-31T09:35:50;100763.31;;;33.57;68.16
32237;BME280;18726;44.732;10.550;2023-07-31T09:38:53;100769.38;;;33.38;70.75
32237;BME280;18726;44.732;10.550;2023-07-31T09:41:57;100771.88;;;33.31;69.06
32237;BME280;18726;44.732;10.550;2023-07-31T09:45:08;100765.38;;;33.62;68.90
32237;BME280;18726;44.732;10.550;2023-07-31T09:48:15;100759.63;;;33.39;71.02
32237;BME280;18726;44.732;10.550;2023-07-31T09:51:26;100762.91;;;34.68;69.38
32237;BME280;18726;44.732;10.550;2023-07-31T09:54:30;100752.91;;;34.50;65.80
32237;BME280;18726;44.732;10.550;2023-07-31T09:57:33;100767.13;;;33.48;70.69
32237;BME280;18726;44.732;10.550;2023-07-31T10:00:38;100763.03;;;33.12;68.95
32237;BME280;18726;44.732;10.550;2023-07-31T10:03:45;100750.94;;;32.74;71.67
32237;BME280;18726;44.732;10.550;2023-07-31T10:06:49;100753.28;;;33.44;69.75
32237;BME280;18726;44.732;10.550;2023-07-31T10:09:55;100756.78;;;33.82;69.20
32237;BME280;18726;44.732;10.550;2023-07-31T10:12:59;100748.88;;;33.86;67.02
32237;BME280;18726;44.732;10.550;2023-07-31T10:16:04;100750.56;;;33.67;67.33
32237;BME280;18726;44.732;10.550;2023-07-31T10:19:08;100747.31;;;33.85;68.21
32237;BME280;18726;44.732;10.550;2023-07-31T10:22:13;100749.47;;;34.07;67.30
32237;BME280;18726;44.732;10.550;2023-07-31T10:25:18;100744.13;;;33.18;70.80
32237;BME280;18726;44.732;10.550;2023-07-31T10:28:24;100732.75;;;33.38;69.76
32237;BME280;18726;44.732;10.550;2023-07-31T10:31:28;100732.66;;;34.79;68.04
32237;BME280;18726;44.732;10.550;2023-07-31T10:34:34;100735.06;;;33.94;67.62
32237;BME280;18726;44.732;10.550;2023-07-31T10:37:43;100737.31;;;33.30;68.90
32237;BME280;18726;44.732;10.550;2023-07-31T10:40:49;100735.75;;;34.81;65.93
32237;BME280;18726;44.732;10.550;2023-07-31T10:44:06;100725.72;;;34.36;66.86
32237;BME280;18726;44.732;10.550;2023-07-31T10:47:14;100729.19;;;34.08;65.91
32237;BME280;18726;44.732;10.550;2023-07-31T10:50:22;100729.63;;;33.79;70.13
32237;BME280;18726;44.732;10.550;2023-07-31T10:53:31;100725.13;;;34.20;66.36
32237;BME280;18726;44.732;10.550;2023-07-31T10:56:39;100719.31;;;34.58;65.14
32237;BME280;18726;44.732;10.550;2023-07-31T10:59:43;100718.50;;;34.68;64.98
32237;BME280;18726;44.732;10.550;2023-07-31T11:03:07;100721.03;;;34.21;63.87
32237;BME280;18726;44.732;10.550;2023-07-31T11:06:14;100712.47;;;33.82;67.54
32237;BME280;18726;44.732;10.550;2023-07-31T11:09:19;100719.41;;;33.87;66.22
32237;BME280;18726;44.732;10.550;2023-07-31T11:12:23;100710.28;;;34.26;65.13
32237;BME280;18726;44.732;10.550;2023-07-31T11:15:27;100710.25;;;33.44;68.00
32237;BME280;18726;44.732;10.550;2023-07-31T11:18:31;100715.91;;;33.49;65.24
32237;BME280;18726;44.732;10.550;2023-07-31T11:21:35;100698.97;;;34.14;66.00
32237;BME280;18726;44.732;10.550;2023-07-31T11:24:39;100703.84;;;35.20;64.52
32237;BME280;18726;44.732;10.550;2023-07-31T11:27:43;100703.66;;;33.64;68.65
32237;BME280;18726;44.732;10.550;2023-07-31T11:30:47;100699.50;;;33.53;63.38
32237;BME280;18726;44.732;10.550;2023-07-31T11:34:04;100693.44;;;33.18;67.03
32237;BME280;18726;44.732;10.550;2023-07-31T11:37:07;100685.69;;;34.32;62.75
32237;BME280;18726;44.732;10.550;2023-07-31T11:40:11;100682.03;;;34.14;63.18
32237;BME280;18726;44.732;10.550;2023-07-31T11:43:15;100678.00;;;33.50;66.27
32237;BME280;18726;44.732;10.550;2023-07-31T11:46:20;100668.09;;;33.72;65.70
32237;BME280;18726;44.732;10.550;2023-07-31T11:49:25;100668.75;;;34.65;64.60
32237;BME280;18726;44.732;10.550;2023-07-31T11:52:32;100660.50;;;34.95;64.30
32237;BME280;18726;44.732;10.550;2023-07-31T11:55:37;100658.22;;;34.66;62.07
32237;BME280;18726;44.732;10.550;2023-07-31T11:58:43;100657.16;;;34.13;62.08
32237;BME280;18726;44.732;10.550;2023-07-31T12:01:49;100655.31;;;33.82;62.27
32237;BME280;18726;44.732;10.550;2023-07-31T12:04:56;100651.25;;;33.94;62.85
32237;BME280;18726;44.732;10.550;2023-07-31T12:08:00;100656.00;;;33.60;61.90
32237;BME280;18726;44.732;10.550;2023-07-31T12:11:05;100647.97;;;34.51;61.58
32237;BME280;18726;44.732;10.550;2023-07-31T12:14:20;100649.03;;;34.32;63.16
32237;BME280;18726;44.732;10.550;2023-07-31T12:17:24;100647.19;;;34.73;58.01
32237;BME280;18726;44.732;10.550;2023-07-31T12:20:30;100640.44;;;35.21;56.42
32237;BME280;18726;44.732;10.550;2023-07-31T12:23:35;100634.75;;;35.32;58.50
32237;BME280;18726;44.732;10.550;2023-07-31T12:26:39;100635.66;;;34.21;63.41
32237;BME280;18726;44.732;10.550;2023-07-31T12:29:42;100629.78;;;34.47;60.55
32237;BME280;18726;44.732;10.550;2023-07-31T12:32:49;100632.31;;;34.11;63.60
32237;BME280;18726;44.732;10.550;2023-07-31T12:35:52;100616.16;;;34.79;60.76
32237;BME280;18726;44.732;10.550;2023-07-31T12:38:56;100616.50;;;35.39;63.98
32237;BME280;18726;44.732;10.550;2023-07-31T12:42:02;100610.06;;;35.38;58.54
32237;BME280;18726;44.732;10.550;2023-07-31T12:45:06;100594.38;;;34.12;63.67
32237;BME280;18726;44.732;10.550;2023-07-31T12:48:09;100589.50;;;34.18;63.84
32237;BME280;18726;44.732;10.550;2023-07-31T12:51:13;100591.78;;;33.81;62.88
32237;BME280;18726;44.732;10.550;2023-07-31T12:54:17;100581.28;;;34.09;64.59
32237;BME280;18726;44.732;10.550;2023-07-31T12:57:21;100577.72;;;34.37;62.89
32237;BME280;18726;44.732;10.550;2023-07-31T13:00:24;100575.59;;;34.71;64.07
32237;BME280;18726;44.732;10.550;2023-07-31T13:03:29;100571.28;;;34.42;62.28
32237;BME280;18726;44.732;10.550;2023-07-31T13:06:32;100565.66;;;34.42;61.32
32237;BME280;18726;44.732;10.550;2023-07-31T13:09:37;100555.16;;;34.26;64.56
32237;BME280;18726;44.732;10.550;2023-07-31T13:12:40;100560.31;;;34.33;64.70
32237;BME280;18726;44.732;10.550;2023-07-31T13:15:44;100561.28;;;34.41;63.75
32237;BME280;18726;44.732;10.550;2023-07-31T13:18:49;100548.69;;;34.64;62.21
32237;BME280;18726;44.732;10.550;2023-07-31T13:21:55;100544.09;;;34.50;63.24
32237;BME280;18726;44.732;10.550;2023-07-31T13:24:59;100541.22;;;34.72;61.74
32237;BME280;18726;44.732;10.550;2023-07-31T13:28:02;100537.16;;;35.31;59.02
32237;BME280;18726;44.732;10.550;2023-07-31T13:31:06;100538.03;;;35.09;60.75
32237;BME280;18726;44.732;10.550;2023-07-31T13:34:09;100542.34;;;35.16;60.68
32237;BME280;18726;44.732;10.550;2023-07-31T13:37:13;100529.56;;;35.04;61.73
32237;BME280;18726;44.732;10.550;2023-07-31T13:40:17;100544.84;;;34.62;59.79
32237;BME280;18726;44.732;10.550;2023-07-31T13:43:21;100535.31;;;34.81;59.25
32237;BME280;18726;44.732;10.550;2023-07-31T13:46:24;100526.38;;;35.24;58.72
32237;BME280;18726;44.732;10.550;2023-07-31T13:49:29;100525.88;;;34.57;59.81
32237;BME280;18726;44.732;10.550;2023-07-31T13:52:33;100520.56;;;34.31;61.65
32237;BME280;18726;44.732;10.550;2023-07-31T13:55:37;100516.94;;;34.25;62.80
32237;BME280;18726;44.732;10.550;2023-07-31T13:58:41;100507.47;;;34.11;61.81
32237;BME280;18726;44.732;10.550;2023-07-31T14:01:45;100510.16;;;34.72;61.57
32237;BME280;18726;44.732;10.550;2023-07-31T14:04:49;100505.88;;;35.18;56.60
32237;BME280;18726;44.732;10.550;2023-07-31T14:07:53;100502.00;;;34.63;57.51
32237;BME280;18726;44.732;10.550;2023-07-31T14:10:57;100502.97;;;35.35;55.91
32237;BME280;18726;44.732;10.550;2023-07-31T14:14:02;100499.00;;;34.28;61.74
32237;BME280;18726;44.732;10.550;2023-07-31T14:17:06;100492.28;;;34.53;62.70
32237;BME280;18726;44.732;10.550;2023-07-31T14:20:10;100497.16;;;35.16;58.82
32237;BME280;18726;44.732;10.550;2023-07-31T14:23:14;100496.81;;;34.78;61.49
32237;BME280;18726;44.732;10.550;2023-07-31T14:26:19;100493.50;;;34.80;59.25
32237;BME280;18726;44.732;10.550;2023-07-31T14:29:23;100491.03;;;34.37;60.44
32237;BME280;18726;44.732;10.550;2023-07-31T14:32:27;100487.81;;;34.85;62.49
32237;BME280;18726;44.732;10.550;2023-07-31T14:35:31;100479.81;;;33.93;59.59
32237;BME280;18726;44.732;10.550;2023-07-31T14:38:34;100482.84;;;34.22;62.51
32237;BME280;18726;44.732;10.550;2023-07-31T14:41:38;100479.56;;;33.96;63.02
32237;BME280;18726;44.732;10.550;2023-07-31T14:44:41;100490.66;;;34.74;58.38
32237;BME280;18726;44.732;10.550;2023-07-31T14:47:45;100488.25;;;35.47;57.59
32237;BME280;18726;44.732;10.550;2023-07-31T14:50:48;100486.88;;;36.19;54.71
32237;BME280;18726;44.732;10.550;2023-07-31T14:53:52;100477.06;;;36.69;53.00
32237;BME280;18726;44.732;10.550;2023-07-31T14:56:56;100471.28;;;36.37;53.64
32237;BME280;18726;44.732;10.550;2023-07-31T14:59:59;100461.22;;;35.16;57.17
32237;BME280;18726;44.732;10.550;2023-07-31T15:03:03;100465.66;;;35.01;55.59
32237;BME280;18726;44.732;10.550;2023-07-31T15:06:06;100457.78;;;34.94;57.89
32237;BME280;18726;44.732;10.550;2023-07-31T15:09:11;100470.06;;;35.73;56.72
32237;BME280;18726;44.732;10.550;2023-07-31T15:12:14;100467.22;;;36.08;53.22
32237;BME280;18726;44.732;10.550;2023-07-31T15:15:19;100457.53;;;35.98;51.34
32237;BME280;18726;44.732;10.550;2023-07-31T15:18:23;100454.25;;;35.59;56.00
32237;BME280;18726;44.732;10.550;2023-07-31T15:21:26;100461.13;;;36.23;54.01
32237;BME280;18726;44.732;10.550;2023-07-31T15:24:30;100463.88;;;35.44;55.01
32237;BME280;18726;44.732;10.550;2023-07-31T15:27:34;100466.63;;;35.14;55.47
32237;BME280;18726;44.732;10.550;2023-07-31T15:30:37;100472.38;;;36.04;53.70
32237;BME280;18726;44.732;10.550;2023-07-31T15:33:41;100471.31;;;36.56;52.33
32237;BME280;18726;44.732;10.550;2023-07-31T15:36:45;100474.28;;;36.88;51.40
32237;BME280;18726;44.732;10.550;2023-07-31T15:39:49;100472.38;;;37.15;50.68
32237;BME280;18726;44.732;10.550;2023-07-31T15:42:52;100470.44;;;37.42;50.69
32237;BME280;18726;44.732;10.550;2023-07-31T15:45:56;100468.06;;;37.46;49.52
32237;BME280;18726;44.732;10.550;2023-07-31T15:48:59;100469.50;;;36.59;50.63
32237;BME280;18726;44.732;10.550;2023-07-31T15:52:03;100478.91;;;36.67;50.51
32237;BME280;18726;44.732;10.550;2023-07-31T15:55:07;100472.88;;;36.08;50.43
32237;BME280;18726;44.732;10.550;2023-07-31T15:58:11;100486.22;;;36.38;53.03